createdAt,value
2018-05-23T00:01:04.577Z,11.50
2018-05-23T00:03:34.886Z,15.50
2018-05-23T00:11:07.277Z,15.40
2018-05-23T00:13:37.218Z,15.30
2018-05-23T00:16:08.509Z,15.30
2018-05-23T00:18:39.030Z,15.30
2018-05-23T00:21:09.295Z,15.30
2018-05-23T00:28:40.823Z,15.30
2018-05-23T00:31:11.530Z,15.30
2018-05-23T00:33:41.945Z,17.70
2018-05-23T00:36:12.128Z,15.40
2018-05-23T00:38:44.911Z,15.40
2018-05-23T00:41:17.659Z,19.30
2018-05-23T00:43:47.854Z,15.20
2018-05-23T00:46:18.192Z,15.40
2018-05-23T00:48:48.530Z,15.40
2018-05-23T00:51:18.801Z,15.30
2018-05-23T00:53:49.174Z,15.40
2018-05-23T00:56:19.474Z,15.30
2018-05-23T00:58:49.918Z,15.40
2018-05-23T01:01:19.825Z,15.40
2018-05-23T01:03:50.166Z,15.40
2018-05-23T01:06:22.318Z,15.40
2018-05-23T01:08:52.286Z,15.40
2018-05-23T01:11:23.893Z,15.40
2018-05-23T01:13:54.357Z,15.30
2018-05-23T01:16:25.524Z,15.30
2018-05-23T01:18:57.963Z,15.20
2018-05-23T01:21:29.156Z,15.30
2018-05-23T01:23:59.718Z,15.30
2018-05-23T01:26:30.046Z,11.30
2018-05-23T01:31:32.299Z,15.30
2018-05-23T01:34:02.665Z,19.20
2018-05-23T01:36:32.969Z,15.30
2018-05-23T01:39:03.417Z,11.30
2018-05-23T01:41:33.333Z,15.30
2018-05-23T01:44:03.649Z,15.30
2018-05-23T01:46:35.493Z,15.20
2018-05-23T01:49:27.541Z,15.10
2018-05-23T01:51:57.875Z,15.20
2018-05-23T01:54:28.295Z,15.20
2018-05-23T01:56:58.637Z,15.20
2018-05-23T01:59:28.943Z,15.30
2018-05-23T02:01:59.306Z,15.20
2018-05-23T02:04:29.695Z,15.30
2018-05-23T02:07:00.088Z,15.30
2018-05-23T02:09:30.476Z,16.30
2018-05-23T02:12:00.893Z,15.30
2018-05-23T02:14:31.261Z,15.30
2018-05-23T02:17:01.639Z,15.30
2018-05-23T02:19:31.660Z,15.30
2018-05-23T02:22:02.554Z,15.30
2018-05-23T02:24:33.593Z,15.30
2018-05-23T02:27:04.051Z,15.30
2018-05-23T02:29:34.455Z,15.40
2018-05-23T02:32:04.921Z,15.20
2018-05-23T02:34:35.304Z,15.40
2018-05-23T02:37:05.664Z,15.40
2018-05-23T02:39:35.694Z,15.40
2018-05-23T02:42:06.108Z,15.40
2018-05-23T02:44:36.554Z,15.40
2018-05-23T02:47:06.975Z,12.00
2018-05-23T02:49:37.508Z,15.40
2018-05-23T02:52:07.938Z,15.40
2018-05-23T02:54:38.376Z,15.20
2018-05-23T02:57:10.382Z,15.30
2018-05-23T02:59:40.751Z,15.30
2018-05-23T03:02:11.529Z,15.40
2018-05-23T03:04:41.921Z,15.30
2018-05-23T03:07:12.387Z,15.30
2018-05-23T03:09:42.755Z,15.30
2018-05-23T03:12:13.201Z,15.40
2018-05-23T03:14:43.628Z,15.30
2018-05-23T03:17:14.034Z,15.40
2018-05-23T03:19:44.502Z,15.40
2018-05-23T03:22:14.860Z,15.40
2018-05-23T03:24:45.332Z,15.40
2018-05-23T03:27:15.342Z,15.30
2018-05-23T03:29:45.759Z,15.50
2018-05-23T03:32:16.187Z,15.40
2018-05-23T03:34:46.535Z,15.40
2018-05-23T03:37:16.488Z,15.40
2018-05-23T03:39:46.961Z,15.40
2018-05-23T03:42:17.295Z,15.40
2018-05-23T03:44:47.623Z,15.20
2018-05-23T03:47:17.931Z,11.30
2018-05-23T03:49:47.927Z,15.40
2018-05-23T03:52:18.297Z,15.40
2018-05-23T03:54:48.775Z,15.40
2018-05-23T03:57:19.843Z,15.40
2018-05-23T03:59:58.987Z,15.40
2018-05-23T04:04:42.287Z,15.40
2018-05-23T04:07:18.907Z,15.50
2018-05-23T04:09:49.240Z,15.50
2018-05-23T04:12:19.599Z,15.60
2018-05-23T04:14:49.973Z,15.70
2018-05-23T04:17:20.520Z,15.70
2018-05-23T04:19:50.939Z,15.80
2018-05-23T04:22:21.377Z,15.80
2018-05-23T04:24:51.887Z,15.90
2018-05-23T04:27:22.313Z,15.90
2018-05-23T04:29:52.703Z,15.90
2018-05-23T04:32:24.813Z,15.90
2018-05-23T04:35:00.782Z,15.90
2018-05-23T04:37:32.476Z,16.00
2018-05-23T04:40:04.450Z,15.90
2018-05-23T04:42:35.075Z,16.10
2018-05-23T04:45:05.788Z,16.10
2018-05-23T04:47:35.974Z,16.20
2018-05-23T04:50:07.177Z,16.20
2018-05-23T04:52:38.999Z,16.20
2018-05-23T04:55:10.227Z,20.40
2018-05-23T04:57:41.985Z,16.30
2018-05-23T05:00:12.688Z,16.40
2018-05-23T05:02:43.055Z,16.40
2018-05-23T05:05:13.386Z,16.40
2018-05-23T05:07:43.351Z,16.50
2018-05-23T05:10:13.711Z,16.60
2018-05-23T05:12:44.051Z,16.60
2018-05-23T05:15:14.539Z,16.70
2018-05-23T05:17:44.859Z,16.70
2018-05-23T05:20:15.327Z,16.90
2018-05-23T05:22:45.744Z,16.90
2018-05-23T05:25:16.243Z,17.00
2018-05-23T05:27:46.803Z,16.90
2018-05-23T05:30:17.244Z,17.00
2018-05-23T05:32:47.616Z,17.00
2018-05-23T05:35:18.716Z,16.00
2018-05-23T05:37:49.059Z,17.00
2018-05-23T05:40:19.536Z,16.90
2018-05-23T05:42:49.908Z,16.80
2018-05-23T05:45:20.211Z,16.90
2018-05-23T05:47:51.463Z,16.80
2018-05-23T05:50:21.888Z,16.70
2018-05-23T05:52:52.316Z,16.80
2018-05-23T05:55:22.748Z,16.90
2018-05-23T05:57:53.240Z,16.90
2018-05-23T06:00:23.592Z,16.90
2018-05-23T06:02:53.969Z,16.90
2018-05-23T06:05:24.340Z,17.00
2018-05-23T06:07:54.785Z,17.00
2018-05-23T06:10:25.220Z,17.10
2018-05-23T06:12:55.647Z,17.10
2018-05-23T06:15:26.027Z,17.00
2018-05-23T06:17:56.494Z,17.10
2018-05-23T06:20:26.874Z,17.20
2018-05-23T06:22:57.336Z,17.20
2018-05-23T06:25:27.727Z,17.30
2018-05-23T06:27:58.204Z,17.30
2018-05-23T06:30:28.562Z,17.30
2018-05-23T06:32:58.893Z,17.40
2018-05-23T06:35:29.383Z,17.40
2018-05-23T06:38:00.159Z,14.40
2018-05-23T06:40:31.863Z,17.30
2018-05-23T06:43:01.983Z,17.30
2018-05-23T06:45:33.591Z,17.40
2018-05-23T06:48:04.063Z,17.40
2018-05-23T06:50:35.863Z,17.30
2018-05-23T06:53:07.444Z,17.40
2018-05-23T06:55:40.962Z,17.50
2018-05-23T06:58:12.286Z,17.40
2018-05-23T07:00:42.971Z,17.50
2018-05-23T07:03:14.219Z,17.50
2018-05-23T07:05:44.702Z,17.50
2018-05-23T07:08:16.002Z,17.50
2018-05-23T07:10:47.710Z,17.60
2018-05-23T07:13:18.575Z,17.50
2018-05-23T07:15:48.676Z,17.60
2018-05-23T07:18:20.938Z,17.70
2018-05-23T07:20:54.487Z,17.80
2018-05-23T07:23:26.447Z,17.90
2018-05-23T07:25:57.859Z,18.00
2018-05-23T07:28:29.851Z,18.10
2018-05-23T07:31:01.680Z,18.10
2018-05-23T07:36:33.647Z,18.20
2018-05-23T07:39:04.527Z,14.30
2018-05-23T07:41:35.998Z,18.20
2018-05-23T07:44:07.262Z,18.30
2018-05-23T07:46:37.919Z,18.30
2018-05-23T07:49:09.165Z,18.30
2018-05-23T07:51:39.159Z,18.20
2018-05-23T07:54:10.325Z,18.20
2018-05-23T07:56:41.634Z,18.30
2018-05-23T07:59:13.447Z,18.30
2018-05-23T08:01:44.783Z,18.40
2018-05-23T08:04:15.931Z,18.40
2018-05-23T08:06:45.948Z,18.50
2018-05-23T08:09:16.305Z,18.50
2018-05-23T08:11:46.667Z,18.50
2018-05-23T08:14:17.092Z,18.60
2018-05-23T08:16:47.454Z,18.70
2018-05-23T08:19:18.732Z,18.80
2018-05-23T08:21:48.706Z,18.80
2018-05-23T08:24:19.228Z,18.90
2018-05-23T08:27:04.559Z,19.10
2018-05-23T08:29:35.083Z,19.20
2018-05-23T08:32:10.739Z,19.10
2018-05-23T08:34:41.549Z,19.30
2018-05-23T08:37:12.067Z,19.40
2018-05-23T08:39:42.756Z,19.50
2018-05-23T08:42:13.633Z,19.50
2018-05-23T08:44:44.151Z,19.40
2018-05-23T08:47:14.912Z,19.20
2018-05-23T08:49:45.675Z,19.10
2018-05-23T08:52:16.163Z,19.10
2018-05-23T08:54:46.589Z,18.90
2018-05-23T08:57:16.946Z,18.80
2018-05-23T08:59:47.396Z,18.80
2018-05-23T09:02:17.655Z,18.70
2018-05-23T09:04:48.825Z,18.70
2018-05-23T09:07:19.035Z,18.70
2018-05-23T09:09:49.462Z,18.90
2018-05-23T09:12:19.838Z,19.00
2018-05-23T09:14:50.255Z,19.20
2018-05-23T09:17:20.596Z,19.30
2018-05-23T09:19:50.970Z,19.30
2018-05-23T09:22:21.758Z,19.30
2018-05-23T09:24:52.542Z,19.20
2018-05-23T09:27:23.055Z,19.20
2018-05-23T09:29:54.508Z,19.30
2018-05-23T09:32:25.322Z,19.30
2018-05-23T09:34:56.348Z,19.30
2018-05-23T09:37:26.714Z,19.30
2018-05-23T09:39:58.342Z,19.20
2018-05-23T09:42:30.450Z,19.20
2018-05-23T09:45:03.516Z,19.30
2018-05-23T09:47:36.395Z,19.30
2018-05-23T09:50:08.505Z,19.40
2018-05-23T09:52:39.113Z,19.60
2018-05-23T09:55:11.783Z,19.70
2018-05-23T09:57:44.730Z,19.90
2018-05-23T10:00:23.162Z,20.00
2018-05-23T10:02:54.755Z,20.20
2018-05-23T10:05:30.829Z,20.40
2018-05-23T10:08:02.296Z,20.50
2018-05-23T10:15:31.460Z,20.70
2018-05-23T10:18:02.028Z,20.90
2018-05-23T10:20:40.148Z,20.70
2018-05-23T10:23:10.503Z,21.30
2018-05-23T10:25:40.943Z,24.60
2018-05-23T10:28:11.286Z,20.80
2018-05-23T10:30:41.524Z,21.00
2018-05-23T10:33:11.777Z,21.20
2018-05-23T10:35:43.223Z,21.20
2018-05-23T10:38:22.202Z,21.60
2018-05-23T10:40:52.450Z,21.70
2018-05-23T10:43:22.750Z,21.80
2018-05-23T10:45:53.087Z,21.90
2018-05-23T10:48:23.323Z,22.10
2018-05-23T10:50:53.536Z,22.70
2018-05-23T10:53:25.672Z,23.60
2018-05-23T10:55:55.869Z,24.60
2018-05-23T10:58:26.179Z,25.50
2018-05-23T11:01:08.143Z,26.20
2018-05-23T11:03:38.389Z,27.60
2018-05-23T11:06:08.671Z,28.60
2018-05-23T11:08:38.959Z,28.90
2018-05-23T11:11:09.167Z,29.00
2018-05-23T11:13:39.431Z,29.00
2018-05-23T11:16:09.689Z,29.00
2018-05-23T11:21:40.359Z,27.90
2018-05-23T11:24:26.450Z,27.80
2018-05-23T11:26:57.402Z,27.70
2018-05-23T11:29:47.124Z,27.50
2018-05-23T11:32:31.420Z,27.70
2018-05-23T11:35:01.672Z,28.20
2018-05-23T11:37:31.919Z,28.60
2018-05-23T11:40:02.215Z,28.90
2018-05-23T11:42:32.456Z,29.80
2018-05-23T11:45:02.699Z,28.60
2018-05-23T11:47:33.124Z,30.60
2018-05-23T11:50:06.609Z,30.80
2018-05-23T11:52:39.102Z,31.10
2018-05-23T11:55:09.437Z,31.00
2018-05-23T11:57:39.776Z,31.10
2018-05-23T12:00:10.153Z,31.10
2018-05-23T12:02:43.100Z,31.40
2018-05-23T12:05:14.217Z,31.80
2018-05-23T12:07:44.860Z,31.90
2018-05-23T12:10:15.381Z,32.00
2018-05-23T12:12:46.012Z,32.30
2018-05-23T12:15:17.185Z,32.10
2018-05-23T12:17:47.693Z,32.20
2018-05-23T12:20:18.375Z,32.20
2018-05-23T12:22:48.781Z,32.30
2018-05-23T12:25:19.168Z,32.50
2018-05-23T12:27:49.606Z,32.60
2018-05-23T12:30:20.017Z,32.50
2018-05-23T12:32:50.551Z,32.40
2018-05-23T12:35:21.643Z,32.40
2018-05-23T12:37:52.111Z,32.40
2018-05-23T12:40:22.538Z,32.60
2018-05-23T12:42:52.960Z,32.70
2018-05-23T12:45:23.347Z,32.60
2018-05-23T12:47:54.732Z,34.30
2018-05-23T12:50:25.061Z,32.30
2018-05-23T12:52:56.372Z,31.70
2018-05-23T12:55:27.041Z,31.10
2018-05-23T12:57:58.391Z,30.50
2018-05-23T13:00:28.775Z,30.60
2018-05-23T13:02:59.775Z,30.90
2018-05-23T13:05:30.315Z,31.00
2018-05-23T13:08:01.867Z,31.10
2018-05-23T13:10:32.287Z,31.10
2018-05-23T13:13:04.407Z,31.10
2018-05-23T13:15:34.779Z,31.10
2018-05-23T13:18:05.193Z,31.10
2018-05-23T13:20:36.231Z,30.70
2018-05-23T13:23:09.282Z,30.50
2018-05-23T13:25:39.823Z,30.40
2018-05-23T13:28:10.350Z,30.40
2018-05-23T13:30:40.712Z,30.40
2018-05-23T13:33:11.235Z,30.50
2018-05-23T13:35:41.663Z,28.90
2018-05-23T13:38:12.499Z,30.40
2018-05-23T13:40:43.717Z,34.10
2018-05-23T13:43:23.079Z,30.10
2018-05-23T13:45:53.511Z,30.20
2018-05-23T13:48:27.019Z,30.20
2018-05-23T13:50:57.393Z,30.10
2018-05-23T13:53:27.779Z,30.20
2018-05-23T13:55:58.192Z,30.30
2018-05-23T13:58:28.574Z,30.40
2018-05-23T14:00:58.967Z,31.40
2018-05-23T14:03:37.115Z,30.00
2018-05-23T14:06:07.963Z,29.60
2018-05-23T14:08:38.623Z,29.50
2018-05-23T14:14:23.976Z,29.30
2018-05-23T14:16:55.652Z,29.30
2018-05-23T14:19:27.070Z,29.00
2018-05-23T14:21:57.879Z,28.80
2018-05-23T14:24:32.495Z,28.60
2018-05-23T14:27:03.142Z,28.70
2018-05-23T14:29:33.676Z,28.80
2018-05-23T14:32:05.312Z,29.00
2018-05-23T14:34:42.135Z,29.10
2018-05-23T14:37:13.457Z,29.30
2018-05-23T14:39:50.219Z,29.20
2018-05-23T14:42:24.752Z,29.20
2018-05-23T14:44:55.994Z,29.30
2018-05-23T14:47:28.420Z,29.40
2018-05-23T14:50:06.481Z,29.20
2018-05-23T14:52:39.617Z,28.90
2018-05-23T14:55:43.221Z,28.60
2018-05-23T14:58:14.774Z,28.20
2018-05-23T15:00:45.809Z,27.50
2018-05-23T15:03:17.363Z,24.30
2018-05-23T15:05:48.815Z,20.70
2018-05-23T15:08:19.363Z,18.40
2018-05-23T15:10:50.580Z,17.40
2018-05-23T15:13:20.919Z,16.90
2018-05-23T15:15:52.387Z,16.70
2018-05-23T15:18:24.739Z,16.80
2018-05-23T15:25:56.427Z,17.20
2018-05-23T15:31:03.387Z,17.40
2018-05-23T15:33:34.364Z,17.30
2018-05-23T15:36:05.487Z,17.30
2018-05-23T15:38:36.922Z,17.40
2018-05-23T15:41:08.219Z,17.40
2018-05-23T15:43:39.906Z,17.60
2018-05-23T15:46:19.046Z,17.70
2018-05-23T15:48:53.511Z,17.70
2018-05-23T15:51:24.459Z,17.60
2018-05-23T15:54:01.711Z,17.80
2018-05-23T15:56:34.020Z,17.90
2018-05-23T15:59:12.940Z,17.90
2018-05-23T16:01:43.270Z,18.00
2018-05-23T16:04:13.592Z,18.00
2018-05-23T16:06:46.279Z,18.10
2018-05-23T16:09:21.190Z,18.10
2018-05-23T16:11:52.359Z,18.20
2018-05-23T16:14:33.437Z,18.20
2018-05-23T16:17:04.112Z,18.30
2018-05-23T16:19:35.112Z,18.30
2018-05-23T16:22:07.162Z,18.30
2018-05-23T16:24:38.307Z,18.30
2018-05-23T16:27:09.487Z,18.30
2018-05-23T16:29:41.311Z,18.30
2018-05-23T16:32:12.984Z,18.30
2018-05-23T16:34:48.964Z,18.30
2018-05-23T16:37:29.712Z,18.10
2018-05-23T16:40:01.316Z,18.30
2018-05-23T16:42:32.391Z,18.30
2018-05-23T16:45:03.232Z,18.30
2018-05-23T16:50:27.400Z,18.40
2018-05-23T16:52:57.780Z,18.30
2018-05-23T16:55:28.459Z,18.40
2018-05-23T16:57:59.693Z,18.40
2018-05-23T17:00:30.638Z,18.30
2018-05-23T17:03:05.690Z,18.30
2018-05-23T17:05:37.577Z,18.20
2018-05-23T17:08:09.883Z,18.20
2018-05-23T17:10:41.401Z,18.20
2018-05-23T17:13:13.844Z,18.10
2018-05-23T17:15:52.899Z,18.10
2018-05-23T17:18:29.476Z,18.00
2018-05-23T17:21:03.986Z,18.00
2018-05-23T17:23:38.235Z,18.10
2018-05-23T17:26:12.559Z,18.10
2018-05-23T17:28:46.871Z,18.10
2018-05-23T17:31:19.852Z,18.10
2018-05-23T17:33:53.612Z,18.10
2018-05-23T17:36:25.779Z,18.00
2018-05-23T17:38:59.679Z,18.20
2018-05-23T17:41:32.512Z,18.20
2018-05-23T17:44:08.025Z,18.20
2018-05-23T17:46:40.119Z,18.10
2018-05-23T17:49:14.066Z,18.00
2018-05-23T17:51:51.950Z,18.00
2018-05-23T17:54:30.114Z,18.00
2018-05-23T17:57:03.688Z,17.90
2018-05-23T18:02:08.560Z,17.80
2018-05-23T18:04:42.671Z,17.80
2018-05-23T18:07:15.953Z,17.90
2018-05-23T18:09:47.832Z,17.90
2018-05-23T18:12:19.379Z,17.90
2018-05-23T18:14:51.755Z,17.90
2018-05-23T18:17:23.051Z,17.90
2018-05-23T18:20:00.113Z,17.90
2018-05-23T18:22:32.536Z,17.70
2018-05-23T18:25:04.312Z,17.90
2018-05-23T18:27:36.448Z,17.80
2018-05-23T18:30:11.577Z,17.80
2018-05-23T18:32:48.607Z,17.60
2018-05-23T18:35:21.224Z,17.70
2018-05-23T18:37:59.210Z,17.60
2018-05-23T18:40:34.660Z,17.50
2018-05-23T18:43:07.594Z,17.50
2018-05-23T18:45:41.180Z,17.50
2018-05-23T18:48:12.590Z,17.50
2018-05-23T18:50:46.884Z,17.50
2018-05-23T18:56:22.304Z,17.50
2018-05-23T18:58:54.324Z,17.40
2018-05-23T19:01:27.307Z,17.40
2018-05-23T19:03:58.924Z,17.30
2018-05-23T19:06:33.686Z,17.30
2018-05-23T19:09:10.505Z,17.20
2018-05-23T19:11:45.308Z,17.20
2018-05-23T19:14:17.840Z,17.20
2018-05-23T19:16:56.698Z,17.10
2018-05-23T19:19:30.857Z,17.20
2018-05-23T19:22:02.679Z,17.10
2018-05-23T19:24:33.607Z,17.10
2018-05-23T19:27:04.875Z,17.00
2018-05-23T19:29:39.299Z,17.10
2018-05-23T19:32:12.231Z,17.20
2018-05-23T19:34:45.265Z,17.20
2018-05-23T19:37:17.584Z,17.20
2018-05-23T19:39:49.423Z,17.10
2018-05-23T19:42:20.464Z,17.20
2018-05-23T19:44:52.284Z,17.10
2018-05-23T19:47:22.956Z,17.10
2018-05-23T19:49:55.229Z,17.10
2018-05-23T19:52:30.157Z,17.00
2018-05-23T19:55:01.787Z,17.00
2018-05-23T19:57:32.295Z,16.90
2018-05-23T20:00:04.068Z,16.90
2018-05-23T20:02:35.561Z,16.90
2018-05-23T20:05:07.182Z,16.80
2018-05-23T20:07:40.322Z,16.70
2018-05-23T20:10:15.544Z,16.70
2018-05-23T20:12:47.824Z,16.60
2018-05-23T20:15:18.293Z,16.50
2018-05-23T20:17:50.200Z,16.40
2018-05-23T20:20:24.693Z,16.40
2018-05-23T20:22:57.616Z,16.40
2018-05-23T20:25:28.212Z,16.30
2018-05-23T20:27:58.684Z,16.30
2018-05-23T20:30:31.790Z,16.20
2018-05-23T20:33:02.199Z,16.20
2018-05-23T20:35:34.252Z,16.10
2018-05-23T20:38:05.674Z,16.10
2018-05-23T20:40:40.711Z,16.00
2018-05-23T20:43:12.711Z,15.90
2018-05-23T20:45:43.147Z,15.90
2018-05-23T20:48:13.825Z,15.90
2018-05-23T20:50:44.210Z,15.90
2018-05-23T20:53:15.224Z,15.80
2018-05-23T20:55:47.864Z,15.80
2018-05-23T20:58:19.673Z,15.80
2018-05-23T21:00:50.148Z,15.80
2018-05-23T21:03:22.389Z,15.70
2018-05-23T21:05:53.872Z,15.70
2018-05-23T21:08:25.983Z,15.70
2018-05-23T21:10:57.239Z,15.70
2018-05-23T21:13:28.597Z,15.60
2018-05-23T21:15:59.035Z,15.60
2018-05-23T21:18:29.665Z,15.50
2018-05-23T21:21:01.009Z,15.60
2018-05-23T21:23:33.026Z,15.60
2018-05-23T21:26:03.375Z,15.60
2018-05-23T21:28:34.421Z,15.60
2018-05-23T21:31:04.860Z,15.60
2018-05-23T21:33:38.352Z,15.70
2018-05-23T21:36:08.746Z,15.70
2018-05-23T21:38:38.746Z,15.70
2018-05-23T21:41:08.986Z,15.80
2018-05-23T21:43:39.663Z,15.80
2018-05-23T21:46:09.987Z,15.80
2018-05-23T21:48:40.579Z,15.80
2018-05-23T21:51:10.931Z,15.90
2018-05-23T21:53:41.321Z,15.90
2018-05-23T21:56:11.383Z,15.90
2018-05-23T21:58:41.704Z,15.90
2018-05-23T22:01:14.079Z,15.90
2018-05-23T22:03:45.835Z,15.90
2018-05-23T22:06:16.170Z,16.00
2018-05-23T22:08:46.499Z,16.00
2018-05-23T22:11:16.540Z,16.00
2018-05-23T22:13:46.823Z,16.00
2018-05-23T22:16:17.147Z,16.00
2018-05-23T22:18:47.064Z,16.00
2018-05-23T22:21:17.403Z,16.00
2018-05-23T22:23:47.710Z,15.90
2018-05-23T22:26:18.035Z,15.90
2018-05-23T22:28:49.180Z,15.90
2018-05-23T22:31:19.200Z,15.80
2018-05-23T22:33:49.527Z,18.90
2018-05-23T22:36:20.459Z,16.00
2018-05-23T22:38:50.958Z,16.00
2018-05-23T22:41:21.215Z,16.10
2018-05-23T22:43:51.647Z,16.10
2018-05-23T22:46:21.910Z,16.10
2018-05-23T22:48:53.236Z,16.00
2018-05-23T22:51:23.678Z,16.00
2018-05-23T22:53:53.991Z,16.00
2018-05-23T22:56:24.596Z,16.00
2018-05-23T22:58:55.347Z,16.00
2018-05-23T23:01:25.266Z,15.90
2018-05-23T23:03:55.570Z,15.90
2018-05-23T23:06:28.319Z,15.80
2018-05-23T23:08:58.656Z,15.80
2018-05-23T23:11:29.905Z,15.80
2018-05-23T23:14:00.358Z,15.70
2018-05-23T23:16:30.698Z,15.70
2018-05-23T23:19:01.214Z,15.50
2018-05-23T23:21:31.647Z,15.50
2018-05-23T23:24:01.976Z,15.50
2018-05-23T23:26:32.288Z,15.40
2018-05-23T23:29:02.915Z,15.40
2018-05-23T23:31:33.387Z,15.40
2018-05-23T23:34:03.687Z,15.40
2018-05-23T23:36:33.588Z,15.50
2018-05-23T23:39:03.708Z,15.50
2018-05-23T23:41:33.619Z,15.50
2018-05-23T23:44:03.948Z,15.50
2018-05-23T23:46:34.279Z,15.50
2018-05-23T23:49:04.522Z,15.50
2018-05-23T23:51:35.535Z,15.50
2018-05-23T23:54:05.874Z,15.50
2018-05-23T23:56:36.300Z,15.50
2018-05-23T23:59:06.949Z,15.50
